Time;durP1;ratioP1;P1;durP2;ratioP2;P2;SDS_P1;SDS_P2;PMS_P1;PMS_P2;Temp;Humidity;BMP_temperature;BMP_pressure;BME280_temperature;BME280_humidity;BME280_pressure;Samples;Min_cycle;Max_cycle;Signal;HPM_P1;HPM_P2
2022/03/20 00:01:19;;;;;;;15.83;9.07;;;5.70;58.70;;;;;;4992962;28;20022;-72
2022/03/20 00:03:45;;;;;;;16.37;8.63;;;5.70;58.00;;;;;;4992066;28;20041;-71
2022/03/20 00:06:11;;;;;;;15.53;8.97;;;5.70;57.40;;;;;;4997123;28;20491;-71
2022/03/20 00:08:37;;;;;;;15.70;7.93;;;5.70;57.40;;;;;;4989682;28;20703;-71
2022/03/20 00:11:04;;;;;;;13.77;7.77;;;5.60;55.70;;;;;;4993666;28;20038;-71
2022/03/20 00:13:30;;;;;;;14.70;7.90;;;5.60;54.40;;;;;;4990852;28;20076;-71
2022/03/20 00:15:57;;;;;;;13.43;8.00;;;5.60;54.20;;;;;;4994616;28;20045;-71
2022/03/20 00:18:26;;;;;;;;;;;5.60;54.10;;;;;;4989260;28;20026;-71
2022/03/20 00:20:57;;;;;;;11.85;6.50;;;5.50;53.50;;;;;;4994261;28;19963;-72
2022/03/20 00:23:23;;;;;;;13.30;7.32;;;5.50;52.80;;;;;;4991218;28;20704;-71
2022/03/20 00:25:50;;;;;;;13.75;7.05;;;5.50;52.50;;;;;;5017002;28;20029;-71
2022/03/20 00:28:19;;;;;;;12.73;7.30;;;5.40;52.40;;;;;;4995771;28;20499;-71
2022/03/20 00:30:46;;;;;;;11.85;7.05;;;5.40;52.10;;;;;;4991046;28;20103;-71
2022/03/20 00:33:12;;;;;;;13.57;7.18;;;5.40;52.50;;;;;;4990284;28;20059;-71
2022/03/20 00:35:39;;;;;;;13.37;7.30;;;5.40;52.40;;;;;;4985752;28;20018;-71
2022/03/20 00:38:05;;;;;;;14.00;6.97;;;5.30;52.10;;;;;;4993033;28;20029;-71
2022/03/20 00:40:31;;;;;;;;;;;5.30;52.90;;;;;;4990216;28;20450;-72
2022/03/20 00:42:58;;;;;;;13.60;7.65;;;5.00;52.90;;;;;;4994441;28;19952;-71
2022/03/20 00:45:25;;;;;;;13.82;8.35;;;5.10;54.20;;;;;;4990870;28;20105;-71
2022/03/20 00:47:50;;;;;;;16.25;7.82;;;5.10;54.30;;;;;;5008790;28;20128;-71
2022/03/20 00:50:17;;;;;;;14.73;7.93;;;5.00;55.10;;;;;;4994414;28;20591;-71
2022/03/20 00:52:43;;;;;;;14.13;7.47;;;4.90;55.40;;;;;;5011782;28;20022;-71
2022/03/20 00:55:09;;;;;;;17.70;8.68;;;4.80;55.50;;;;;;4994096;28;20022;-72
2022/03/20 00:57:35;;;;;;;17.30;7.87;;;4.80;56.20;;;;;;4990364;28;20502;-72
2022/03/20 01:00:00;;;;;;;15.30;7.97;;;4.70;57.00;;;;;;4990950;28;20022;-71
2022/03/20 01:02:26;;;;;;;11.90;7.70;;;4.70;57.60;;;;;;4990481;28;20036;-72
2022/03/20 01:04:52;;;;;;;19.03;8.37;;;4.60;58.80;;;;;;4997270;28;20053;-72
2022/03/20 01:07:17;;;;;;;14.00;8.97;;;4.60;60.00;;;;;;4994531;28;20434;-71
2022/03/20 01:09:43;;;;;;;18.73;10.60;;;4.50;60.40;;;;;;4991343;28;20029;-72
2022/03/20 01:12:10;;;;;;;17.50;8.97;;;4.40;60.80;;;;;;4996236;28;20746;-71
2022/03/20 01:14:36;;;;;;;21.05;8.77;;;4.30;61.10;;;;;;5012704;28;20077;-71
2022/03/20 01:17:02;;;;;;;16.15;9.13;;;4.20;62.20;;;;;;4994771;28;20088;-71
2022/03/20 01:19:28;;;;;;;15.97;9.00;;;4.10;62.90;;;;;;4987246;28;20626;-72
2022/03/20 01:21:55;;;;;;;17.23;8.93;;;4.10;62.80;;;;;;4994590;28;20061;-71
2022/03/20 01:24:22;;;;;;;13.48;8.02;;;4.10;63.30;;;;;;4993351;28;20104;-72
2022/03/20 01:26:48;;;;;;;16.77;8.85;;;4.00;62.90;;;;;;4998068;28;20383;-71
2022/03/20 01:29:14;;;;;;;16.13;8.97;;;4.00;63.40;;;;;;4993244;28;20034;-71
2022/03/20 01:31:39;;;;;;;16.33;8.23;;;4.00;63.90;;;;;;4992981;28;20050;-71
2022/03/20 01:34:06;;;;;;;13.93;8.63;;;4.00;62.60;;;;;;4994865;28;20694;-71
2022/03/20 01:36:31;;;;;;;17.77;8.98;;;3.90;62.60;;;;;;4992817;28;20029;-72
2022/03/20 01:38:57;;;;;;;15.73;8.50;;;3.90;63.60;;;;;;4995220;28;20033;-71
2022/03/20 01:41:24;;;;;;;13.80;8.27;;;3.90;62.60;;;;;;5014307;28;20490;-72
2022/03/20 01:43:50;;;;;;;13.02;7.78;;;3.90;63.30;;;;;;4997927;28;20164;-71
2022/03/20 01:46:16;;;;;;;19.40;8.63;;;3.90;63.60;;;;;;4996838;28;20027;-71
2022/03/20 01:48:41;;;;;;;13.70;8.30;;;3.80;63.70;;;;;;4994102;28;20096;-71
2022/03/20 01:51:10;;;;;;;21.03;8.70;;;3.70;63.90;;;;;;4996713;28;20428;-71
2022/03/20 01:53:36;;;;;;;12.25;7.65;;;3.70;62.90;;;;;;4993595;28;20679;-71
2022/03/20 01:56:02;;;;;;;15.03;8.37;;;3.60;63.30;;;;;;5019566;28;20057;-71
2022/03/20 01:58:27;;;;;;;13.97;8.27;;;3.60;64.00;;;;;;4998536;28;20497;-72
2022/03/20 02:00:54;;;;;;;16.13;8.43;;;3.60;63.90;;;;;;5023011;28;20034;-71
2022/03/20 02:03:20;;;;;;;16.05;8.07;;;3.50;63.40;;;;;;5015532;28;20443;-71
2022/03/20 02:05:45;;;;;;;12.50;7.80;;;3.50;62.10;;;;;;4991484;28;20029;-71
2022/03/20 02:08:12;;;;;;;13.57;7.93;;;3.50;62.60;;;;;;4994925;28;20025;-71
2022/03/20 02:10:40;;;;;;;;;;;3.50;62.20;;;;;;4992910;28;20034;-71
2022/03/20 02:13:08;;;;;;;15.68;8.45;;;3.50;62.70;;;;;;4994382;28;19963;-71
2022/03/20 02:15:34;;;;;;;15.60;8.68;;;3.50;63.00;;;;;;4993405;28;20026;-71
2022/03/20 02:18:00;;;;;;;13.32;7.28;;;3.50;62.70;;;;;;4997768;28;20106;-71
2022/03/20 02:20:29;;;;;;;12.80;7.57;;;3.40;62.70;;;;;;5008951;28;20062;-71
2022/03/20 02:22:55;;;;;;;14.48;7.80;;;3.40;62.80;;;;;;5014970;28;20059;-71
2022/03/20 02:25:22;;;;;;;13.47;8.03;;;3.40;63.50;;;;;;4995890;28;20584;-71
2022/03/20 02:27:47;;;;;;;13.07;7.60;;;3.40;64.70;;;;;;4997997;28;20044;-71
2022/03/20 02:30:16;;;;;;;15.43;8.83;;;3.40;64.20;;;;;;4995220;28;21497;-72
2022/03/20 02:32:49;;;;;;;14.90;8.15;;;3.40;64.20;;;;;;4996420;28;20025;-71
2022/03/20 02:35:17;;;;;;;14.95;8.80;;;3.40;65.10;;;;;;4993937;28;20065;-71
2022/03/20 02:37:53;;;;;;;14.30;8.60;;;3.40;65.40;;;;;;4995636;28;20034;-71
2022/03/20 02:40:21;;;;;;;14.43;8.77;;;3.30;64.80;;;;;;4985950;28;20026;-71
2022/03/20 02:42:48;;;;;;;16.38;8.75;;;3.20;65.20;;;;;;4994065;28;20144;-71
2022/03/20 02:45:17;;;;;;;16.50;8.43;;;3.20;66.00;;;;;;4990798;28;20051;-71
2022/03/20 02:47:45;;;;;;;15.10;8.15;;;3.20;65.80;;;;;;4997617;28;20032;-71
2022/03/20 02:50:19;;;;;;;13.93;7.57;;;3.10;58.90;;;;;;4990094;28;20030;-71
2022/03/20 02:52:56;;;;;;;12.65;6.97;;;3.00;58.70;;;;;;4997161;28;20030;-71
2022/03/20 02:55:26;;;;;;;14.60;7.72;;;2.90;59.00;;;;;;4991687;28;20024;-71
2022/03/20 02:57:53;;;;;;;12.90;7.30;;;2.90;58.60;;;;;;4997750;28;20040;-71
2022/03/20 03:00:22;;;;;;;13.88;7.50;;;2.90;58.30;;;;;;4989259;28;20022;-71
2022/03/20 03:02:50;;;;;;;11.77;6.45;;;2.90;57.50;;;;;;4995899;28;20040;-71
2022/03/20 03:05:18;;;;;;;13.20;7.45;;;2.90;57.20;;;;;;4990812;28;20022;-71
2022/03/20 03:13:16;;;;;;;13.50;6.90;;;2.90;58.70;;;;;;4987634;28;20041;-71
2022/03/20 03:15:42;;;;;;;13.90;7.60;;;2.90;60.70;;;;;;4995248;28;20031;-71
2022/03/20 03:18:08;;;;;;;14.15;7.97;;;2.90;61.50;;;;;;4993322;28;20038;-71
2022/03/20 03:20:34;;;;;;;12.30;7.20;;;2.80;59.80;;;;;;5019035;28;20022;-71
2022/03/20 03:23:00;;;;;;;15.03;7.87;;;2.80;59.60;;;;;;4993827;28;20972;-71
2022/03/20 03:25:26;;;;;;;13.68;8.20;;;2.70;59.10;;;;;;5015687;28;20038;-71
2022/03/20 03:27:53;;;;;;;12.97;7.60;;;2.70;58.80;;;;;;5019113;28;20034;-70
2022/03/20 03:30:19;;;;;;;17.05;8.20;;;2.70;60.50;;;;;;4991348;28;20033;-71
2022/03/20 03:32:45;;;;;;;13.30;7.28;;;2.70;59.80;;;;;;4994843;28;21629;-71
2022/03/20 03:37:59;;;;;;;14.27;6.82;;;2.60;58.30;;;;;;4993839;28;20092;-71
2022/03/20 03:40:25;;;;;;;12.38;6.95;;;2.60;58.30;;;;;;5010936;28;20017;-71
2022/03/20 03:42:51;;;;;;;12.67;8.07;;;2.70;58.00;;;;;;5023731;28;20045;-71
2022/03/20 03:45:17;;;;;;;13.52;7.45;;;2.60;57.80;;;;;;4992665;28;20048;-71
2022/03/20 03:47:43;;;;;;;12.50;7.63;;;2.60;57.20;;;;;;4994969;28;20030;-72
2022/03/20 03:50:10;;;;;;;15.67;6.53;;;2.60;56.80;;;;;;4988691;28;20033;-71
2022/03/20 03:52:36;;;;;;;;;;;2.60;56.90;;;;;;4995885;28;20025;-71
2022/03/20 03:55:05;;;;;;;11.65;6.57;;;2.60;57.70;;;;;;4992378;28;19905;-71
2022/03/20 03:57:31;;;;;;;14.05;6.93;;;2.60;58.80;;;;;;5013598;28;20096;-71
2022/03/20 03:59:58;;;;;;;12.10;7.57;;;2.60;58.10;;;;;;4996089;28;20030;-71
2022/03/20 04:02:23;;;;;;;14.70;7.65;;;2.50;58.90;;;;;;4991829;28;20175;-71
2022/03/20 04:04:49;;;;;;;13.73;7.43;;;2.50;59.10;;;;;;4995877;28;20457;-71
2022/03/20 04:07:18;;;;;;;14.47;7.10;;;2.50;59.30;;;;;;4993408;28;20061;-72
2022/03/20 04:09:48;;;;;;;12.82;6.72;;;2.50;60.40;;;;;;4995656;28;20036;-72
2022/03/20 04:12:14;;;;;;;17.33;8.02;;;2.50;60.10;;;;;;4987970;28;20032;-71
2022/03/20 04:14:41;;;;;;;14.55;7.35;;;2.40;61.20;;;;;;4992702;28;20045;-71
2022/03/20 04:17:07;;;;;;;;;;;2.40;61.20;;;;;;4991990;28;20523;-71
2022/03/20 04:19:32;;;;;;;12.70;6.88;;;2.40;61.20;;;;;;4994977;28;20000;-71
2022/03/20 04:21:59;;;;;;;11.47;6.90;;;2.40;60.20;;;;;;4993557;28;20142;-71
2022/03/20 04:24:25;;;;;;;14.95;8.05;;;2.40;59.80;;;;;;4989160;28;20038;-71
2022/03/20 04:26:53;;;;;;;14.07;6.93;;;2.30;59.60;;;;;;4997369;28;20033;-71
2022/03/20 04:29:20;;;;;;;13.45;7.22;;;2.20;59.60;;;;;;4992446;28;20037;-71
2022/03/20 04:31:50;;;;;;;11.07;6.45;;;2.20;60.00;;;;;;4994735;28;20034;-71
2022/03/20 04:34:16;;;;;;;11.10;7.28;;;2.20;59.80;;;;;;4988345;28;20450;-71
2022/03/20 04:36:43;;;;;;;13.65;6.70;;;2.10;58.30;;;;;;4993276;28;20716;-72
2022/03/20 04:39:09;;;;;;;10.77;6.70;;;2.10;58.70;;;;;;4988239;28;20060;-72
2022/03/20 04:41:35;;;;;;;9.87;6.43;;;2.10;58.40;;;;;;4992028;28;20061;-71
2022/03/20 04:44:02;;;;;;;13.27;6.83;;;2.10;59.00;;;;;;4995378;28;20025;-71
2022/03/20 04:46:27;;;;;;;;;;;2.10;58.30;;;;;;4991201;28;20018;-71
2022/03/20 04:59:50;;;;;;;14.35;6.75;;;2.00;60.10;;;;;;4995465;28;20033;-71
2022/03/20 05:02:16;;;;;;;12.93;8.00;;;1.90;60.50;;;;;;4989760;28;20034;-71
2022/03/20 05:04:41;;;;;;;14.20;7.93;;;2.00;60.50;;;;;;4991056;28;20018;-72
2022/03/20 05:07:07;;;;;;;13.83;7.30;;;2.00;60.90;;;;;;5015494;28;20041;-71
2022/03/20 05:15:09;;;;;;;12.82;7.05;;;2.30;60.70;;;;;;4992577;28;20659;-72
2022/03/20 05:17:36;;;;;;;14.23;7.70;;;2.40;60.10;;;;;;4997839;28;20026;-71
2022/03/20 05:20:03;;;;;;;12.07;7.00;;;2.60;60.20;;;;;;4995871;28;20584;-71
2022/03/20 05:22:30;;;;;;;13.15;7.22;;;2.90;59.70;;;;;;4992410;28;20026;-71
2022/03/20 05:24:56;;;;;;;11.60;6.97;;;3.20;59.50;;;;;;4998944;28;20506;-71
2022/03/20 05:27:22;;;;;;;15.80;8.07;;;4.00;59.20;;;;;;4995009;28;20026;-72
2022/03/20 05:29:48;;;;;;;14.70;6.97;;;4.10;56.70;;;;;;4996050;28;20057;-71
2022/03/20 05:32:14;;;;;;;12.30;6.97;;;4.50;56.50;;;;;;4995279;28;20037;-71
2022/03/20 05:34:40;;;;;;;12.23;6.57;;;5.10;54.80;;;;;;4996090;28;20029;-71
2022/03/20 05:37:07;;;;;;;12.23;7.73;;;5.60;53.70;;;;;;4996586;28;20763;-71
2022/03/20 05:39:33;;;;;;;14.05;8.48;;;6.10;52.60;;;;;;4992886;28;20018;-71
2022/03/20 05:41:59;;;;;;;15.30;8.10;;;6.70;51.00;;;;;;4995129;28;20029;-71
2022/03/20 05:44:26;;;;;;;13.33;8.00;;;7.20;50.00;;;;;;4993721;28;20022;-71
2022/03/20 05:46:54;;;;;;;13.93;8.02;;;7.50;48.30;;;;;;4997681;28;20029;-71
2022/03/20 05:49:21;;;;;;;12.57;7.70;;;7.80;47.50;;;;;;4993334;28;20022;-71
2022/03/20 05:51:48;;;;;;;12.55;8.43;;;8.40;46.30;;;;;;4997927;28;20639;-71
2022/03/20 05:54:15;;;;;;;9.55;6.93;;;8.90;44.60;;;;;;4990424;28;20033;-72
2022/03/20 05:59:28;;;;;;;12.02;6.97;;;8.60;42.10;;;;;;4995229;28;20028;-72
2022/03/20 06:01:54;;;;;;;13.55;7.25;;;8.80;42.30;;;;;;4998483;28;20587;-71
2022/03/20 06:04:21;;;;;;;15.00;7.38;;;9.50;42.60;;;;;;4995273;28;20056;-72
2022/03/20 06:06:48;;;;;;;;;;;10.40;40.30;;;;;;5011381;28;20022;-72
2022/03/20 06:09:15;;;;;;;12.43;7.78;;;10.60;39.20;;;;;;4991825;28;19919;-72
2022/03/20 06:11:41;;;;;;;11.63;7.28;;;11.30;38.90;;;;;;4995262;28;20026;-72
2022/03/20 06:14:08;;;;;;;16.40;7.00;;;11.80;37.00;;;;;;4996524;28;20045;-72
2022/03/20 06:16:36;;;;;;;13.25;8.68;;;12.20;36.50;;;;;;4993361;28;20506;-72
2022/03/20 06:19:03;;;;;;;11.23;6.97;;;12.30;35.70;;;;;;4994717;28;20060;-71
2022/03/20 06:21:29;;;;;;;11.13;8.00;;;12.50;35.40;;;;;;4990755;28;20528;-71
2022/03/20 06:23:55;;;;;;;12.00;7.47;;;12.60;34.50;;;;;;4995557;28;20503;-71
2022/03/20 06:26:23;;;;;;;11.48;7.22;;;11.30;34.90;;;;;;4995406;28;20030;-72
2022/03/20 06:28:49;;;;;;;12.73;7.55;;;11.40;36.00;;;;;;4998133;28;20571;-72
2022/03/20 06:31:18;;;;;;;11.50;8.02;;;12.40;34.80;;;;;;4992806;28;20037;-71
2022/03/20 06:33:44;;;;;;;10.23;7.72;;;12.50;34.10;;;;;;4997741;28;20396;-71
2022/03/20 06:36:10;;;;;;;12.00;7.30;;;12.90;33.60;;;;;;4998700;28;20029;-72
2022/03/20 06:38:37;;;;;;;11.80;7.35;;;13.20;33.70;;;;;;4992017;28;20011;-72
2022/03/20 06:41:04;;;;;;;10.02;7.25;;;13.60;33.00;;;;;;4993286;28;20109;-72
2022/03/20 06:43:30;;;;;;;12.55;7.47;;;14.00;33.40;;;;;;4992676;28;20109;-72
2022/03/20 06:45:56;;;;;;;9.80;7.45;;;14.30;31.70;;;;;;5018865;28;20109;-72
2022/03/20 06:48:24;;;;;;;12.85;8.57;;;13.70;31.40;;;;;;4992731;28;20042;-72
2022/03/20 06:50:50;;;;;;;10.18;7.72;;;13.10;32.30;;;;;;4995399;28;20021;-72
2022/03/20 06:53:18;;;;;;;16.70;8.18;;;11.80;33.00;;;;;;4990795;28;20091;-72
2022/03/20 06:55:45;;;;;;;12.10;7.53;;;11.70;34.00;;;;;;4998011;28;20152;-71
2022/03/20 06:58:13;;;;;;;11.27;7.45;;;10.70;35.20;;;;;;4999259;28;20113;-72
2022/03/20 07:00:40;;;;;;;11.18;7.13;;;11.40;35.20;;;;;;4992122;28;20026;-72
2022/03/20 07:03:06;;;;;;;;;;;11.40;34.70;;;;;;4996996;28;20021;-71
2022/03/20 07:05:36;;;;;;;11.82;6.70;;;11.40;34.40;;;;;;4993786;28;19905;-71
2022/03/20 07:08:04;;;;;;;13.15;6.88;;;11.30;35.00;;;;;;4991279;28;20025;-72
2022/03/20 07:10:31;;;;;;;10.07;7.38;;;10.30;35.60;;;;;;4987638;28;20080;-72
2022/03/20 07:15:44;;;;;;;14.43;7.40;;;11.70;34.90;;;;;;4995753;28;20156;-71
2022/03/20 07:18:12;;;;;;;9.88;7.10;;;11.80;34.00;;;;;;4993186;28;20109;-72
2022/03/20 07:20:38;;;;;;;10.90;7.65;;;12.40;34.50;;;;;;4993168;28;20184;-72
2022/03/20 07:23:06;;;;;;;12.18;6.90;;;12.10;33.40;;;;;;4990792;28;20076;-72
2022/03/20 07:31:05;;;;;;;10.25;7.20;;;14.20;32.30;;;;;;4989223;28;20037;-71
2022/03/20 07:33:33;;;;;;;12.93;7.55;;;14.20;31.30;;;;;;4995323;28;20058;-72
2022/03/20 07:36:01;;;;;;;10.93;7.85;;;13.80;32.10;;;;;;4991538;28;20046;-71
2022/03/20 07:38:27;;;;;;;10.40;7.60;;;13.20;32.10;;;;;;4996282;28;20083;-72
2022/03/20 07:40:53;;;;;;;10.85;7.50;;;13.10;31.80;;;;;;4992039;28;20381;-72
2022/03/20 07:43:19;;;;;;;11.10;7.70;;;12.70;32.40;;;;;;4996172;28;20018;-71
2022/03/20 07:45:45;;;;;;;12.50;7.57;;;13.10;32.20;;;;;;4994079;28;20662;-72
2022/03/20 07:48:11;;;;;;;13.60;7.57;;;12.50;32.50;;;;;;4994172;28;20040;-67
2022/03/20 07:50:37;;;;;;;12.30;6.93;;;12.00;33.20;;;;;;4990550;28;20383;-67
2022/03/20 07:53:03;;;;;;;10.17;7.33;;;12.50;34.30;;;;;;4990705;28;20037;-71
2022/03/20 07:55:29;;;;;;;9.82;7.13;;;13.00;33.00;;;;;;4994958;28;20022;-71
2022/03/20 07:57:56;;;;;;;11.23;7.37;;;12.30;33.20;;;;;;4992991;28;20022;-71
2022/03/20 08:00:22;;;;;;;13.13;7.10;;;12.30;34.00;;;;;;4991195;28;20022;-71
2022/03/20 08:02:48;;;;;;;13.27;7.13;;;13.30;33.40;;;;;;4993346;28;20037;-71
2022/03/20 08:05:15;;;;;;;11.65;7.80;;;12.40;33.40;;;;;;4994375;28;20037;-70
2022/03/20 08:07:40;;;;;;;12.07;7.90;;;13.10;33.80;;;;;;4994306;28;20161;-71
2022/03/20 08:10:07;;;;;;;11.70;7.83;;;12.60;32.50;;;;;;4987632;28;20121;-71
2022/03/20 08:12:33;;;;;;;12.15;7.88;;;13.20;33.10;;;;;;4992329;28;20172;-71
2022/03/20 08:14:59;;;;;;;10.35;7.38;;;12.70;32.60;;;;;;4990057;28;20079;-71
2022/03/20 08:17:25;;;;;;;13.45;8.38;;;13.40;33.30;;;;;;4991358;28;20022;-71
2022/03/20 08:19:51;;;;;;;10.90;7.07;;;13.40;32.30;;;;;;4988657;28;20747;-72
2022/03/20 08:22:17;;;;;;;12.37;7.53;;;13.60;33.60;;;;;;4996007;28;20478;-71
2022/03/20 08:24:46;;;;;;;10.35;7.45;;;14.90;31.50;;;;;;4990626;28;20057;-72
2022/03/20 08:27:12;;;;;;;12.25;8.30;;;15.60;31.40;;;;;;4990198;28;20533;-72
2022/03/20 08:29:38;;;;;;;11.13;7.50;;;15.20;30.30;;;;;;4992192;28;20034;-71
2022/03/20 08:32:05;;;;;;;9.63;7.75;;;13.60;31.90;;;;;;4991349;28;20061;-71
2022/03/20 08:34:31;;;;;;;13.13;8.20;;;12.80;32.70;;;;;;4992184;28;20375;-71
2022/03/20 08:36:57;;;;;;;12.55;8.02;;;12.30;33.50;;;;;;4991337;28;20022;-72
2022/03/20 08:39:22;;;;;;;11.70;8.17;;;12.80;34.10;;;;;;4995082;28;20129;-71
2022/03/20 08:41:48;;;;;;;13.27;8.53;;;12.60;33.50;;;;;;4992232;28;20026;-71
2022/03/20 08:44:14;;;;;;;12.80;8.13;;;12.30;33.60;;;;;;4987471;28;20047;-71
2022/03/20 08:46:41;;;;;;;12.70;8.45;;;11.30;35.30;;;;;;4994103;28;20025;-71
2022/03/20 08:49:08;;;;;;;;;;;12.10;35.10;;;;;;4989011;28;20034;-72
2022/03/20 08:51:35;;;;;;;15.75;8.20;;;12.30;34.60;;;;;;4996169;28;20052;-71
2022/03/20 08:54:02;;;;;;;11.77;8.20;;;12.90;35.00;;;;;;4987288;28;20493;-71
2022/03/20 08:56:28;;;;;;;11.10;8.23;;;13.20;33.80;;;;;;5019139;28;20040;-71
2022/03/20 08:58:54;;;;;;;12.40;8.52;;;13.30;34.30;;;;;;4989650;28;20544;-72
2022/03/20 09:01:21;;;;;;;11.65;7.70;;;13.50;34.20;;;;;;4992917;28;20037;-72
2022/03/20 09:03:49;;;;;;;13.32;9.30;;;14.50;33.40;;;;;;4993500;28;20052;-72
2022/03/20 09:06:17;;;;;;;13.02;8.27;;;14.80;31.90;;;;;;4987338;28;20537;-72
2022/03/20 09:08:43;;;;;;;12.13;8.77;;;13.40;33.10;;;;;;4995184;28;20037;-71
2022/03/20 09:11:09;;;;;;;11.63;8.55;;;12.80;34.10;;;;;;4986476;28;20025;-71
2022/03/20 09:13:35;;;;;;;12.30;9.15;;;12.50;35.30;;;;;;4992775;28;20033;-71
2022/03/20 09:19:07;;;;;;;12.93;8.48;;;11.80;36.90;;;;;;4994394;28;20049;-72
2022/03/20 09:21:37;;;;;;;12.17;8.20;;;11.20;36.70;;;;;;4994131;28;20104;-71
2022/03/20 09:24:04;;;;;;;13.05;8.57;;;10.70;37.50;;;;;;5010496;28;20049;-71
2022/03/20 09:26:30;;;;;;;13.18;9.13;;;11.60;36.90;;;;;;4993343;28;20030;-71
2022/03/20 09:28:56;;;;;;;12.43;8.80;;;11.30;37.00;;;;;;4990539;28;20026;-72
2022/03/20 09:31:23;;;;;;;13.35;8.93;;;11.40;36.70;;;;;;4990954;28;20824;-71
2022/03/20 09:33:49;;;;;;;13.05;8.35;;;10.80;36.70;;;;;;4995348;28;20025;-72
2022/03/20 09:36:16;;;;;;;;;;;11.10;37.10;;;;;;4991242;28;20030;-72
2022/03/20 09:38:42;;;;;;;12.98;9.02;;;12.00;36.50;;;;;;4992484;28;19910;-71
2022/03/20 09:41:09;;;;;;;12.20;8.37;;;11.70;35.90;;;;;;4986868;28;20663;-71
2022/03/20 10:18:23;;;;;;;12.73;9.05;;;10.50;39.20;;;;;;5091626;27;20445;-70
2022/03/20 10:20:52;;;;;;;13.70;8.38;;;8.80;40.70;;;;;;5088292;28;20034;-70
2022/03/20 10:23:27;;;;;;;13.15;8.95;;;8.30;40.80;;;;;;5092271;28;20026;-70
2022/03/20 10:25:53;;;;;;;12.13;7.80;;;8.20;41.90;;;;;;5088446;28;20036;-70
2022/03/20 10:28:19;;;;;;;11.17;6.87;;;8.00;42.00;;;;;;5088952;28;20023;-70
2022/03/20 10:30:58;;;;;;;13.43;8.00;;;8.10;42.40;;;;;;5091767;28;20024;-70
2022/03/20 10:33:24;;;;;;;12.85;8.23;;;8.40;42.50;;;;;;5088899;28;20716;-70
2022/03/20 10:36:23;;;;;;;13.13;8.77;;;9.00;40.90;;;;;;5093420;28;20028;-70
2022/03/20 10:38:49;;;;;;;13.15;8.00;;;9.00;41.60;;;;;;5055881;28;20036;-70
2022/03/20 10:41:32;;;;;;;12.07;7.97;;;9.40;41.10;;;;;;5087220;28;20066;-70
2022/03/20 10:43:59;;;;;;;12.13;7.80;;;9.10;41.00;;;;;;5095167;28;20387;-69
2022/03/20 10:46:25;;;;;;;14.57;9.00;;;8.60;42.00;;;;;;5090687;28;20038;-70
2022/03/20 10:48:54;;;;;;;;;;;8.30;42.10;;;;;;5092733;28;20043;-70
2022/03/20 10:51:39;;;;;;;11.68;7.40;;;8.20;42.40;;;;;;5085826;28;19908;-70
2022/03/20 10:54:13;;;;;;;12.65;8.02;;;8.40;42.40;;;;;;5090360;28;20016;-69
2022/03/20 10:56:58;;;;;;;12.48;7.93;;;8.80;42.60;;;;;;5087312;28;20024;-70
2022/03/20 10:59:25;;;;;;;15.05;8.23;;;9.60;41.00;;;;;;5086621;28;20040;-67
2022/03/20 11:01:51;;;;;;;11.93;7.53;;;10.50;41.20;;;;;;5090502;28;20019;-70
2022/03/20 11:04:21;;;;;;;10.57;7.63;;;10.90;39.20;;;;;;5089873;28;20028;-70
2022/03/20 11:06:48;;;;;;;13.73;7.95;;;11.00;38.50;;;;;;5089802;28;20656;-70
2022/03/20 11:09:15;;;;;;;13.27;8.25;;;10.20;39.30;;;;;;5090674;28;20032;-70
2022/03/20 11:11:48;;;;;;;13.57;8.38;;;9.80;40.20;;;;;;5086973;28;20441;-70
2022/03/20 11:14:15;;;;;;;13.10;8.45;;;9.40;40.40;;;;;;5091117;28;21395;-70
2022/03/20 11:16:42;;;;;;;11.45;7.65;;;9.10;41.10;;;;;;5094031;28;20121;-69
2022/03/20 11:19:12;;;;;;;11.18;7.50;;;9.00;41.60;;;;;;5099693;27;20024;-69
2022/03/20 11:21:44;;;;;;;14.57;8.23;;;8.90;41.70;;;;;;5093062;28;20034;-69
2022/03/20 11:24:11;;;;;;;14.27;8.45;;;8.80;42.10;;;;;;5099098;27;20016;-69
2022/03/20 11:26:39;;;;;;;24.30;8.00;;;8.60;42.00;;;;;;5093989;28;20104;-70
2022/03/20 11:29:07;;;;;;;11.93;7.45;;;8.90;42.30;;;;;;5094565;28;20024;-69
2022/03/20 11:31:36;;;;;;;12.32;7.55;;;8.80;41.90;;;;;;5092942;28;20024;-69
2022/03/20 11:34:06;;;;;;;11.00;7.57;;;9.00;42.10;;;;;;5095111;28;20012;-70
2022/03/20 11:36:53;;;;;;;11.82;8.10;;;9.10;42.00;;;;;;5091062;28;20023;-69
2022/03/20 11:39:19;;;;;;;15.68;7.80;;;9.00;41.30;;;;;;5092472;28;20324;-65
2022/03/20 11:41:44;;;;;;;13.27;7.60;;;8.90;41.60;;;;;;5095148;28;20032;-65
2022/03/20 11:44:15;;;;;;;13.07;7.77;;;8.80;41.70;;;;;;5097383;28;20020;-69
2022/03/20 11:46:43;;;;;;;12.30;7.25;;;9.20;42.60;;;;;;5092385;28;20043;-69
2022/03/20 11:49:17;;;;;;;12.98;7.47;;;9.50;41.90;;;;;;5097194;28;20023;-69
2022/03/20 11:52:01;;;;;;;11.45;7.28;;;9.80;40.40;;;;;;5093565;28;20831;-69
2022/03/20 11:54:51;;;;;;;13.35;7.90;;;9.50;41.60;;;;;;5091405;28;20107;-69
2022/03/20 11:57:26;;;;;;;10.77;7.50;;;9.20;41.00;;;;;;5085968;28;20132;-69
2022/03/20 11:59:57;;;;;;;11.45;6.70;;;9.10;41.70;;;;;;5096095;28;20659;-69
2022/03/20 12:02:48;;;;;;;15.27;7.97;;;9.30;41.90;;;;;;5092432;28;20448;-69
2022/03/20 12:05:19;;;;;;;14.13;7.22;;;9.30;41.60;;;;;;5071662;28;20877;-69
2022/03/20 12:08:20;;;;;;;11.27;7.38;;;9.30;41.40;;;;;;5097549;28;20031;-70
2022/03/20 12:11:01;;;;;;;10.93;6.88;;;9.50;42.30;;;;;;5064477;28;20100;-70
2022/03/20 12:14:02;;;;;;;13.60;8.15;;;9.60;41.30;;;;;;5093882;28;20372;-70
2022/03/20 12:16:52;;;;;;;14.63;7.45;;;9.60;40.90;;;;;;5093895;28;20020;-70
2022/03/20 12:19:26;;;;;;;10.32;6.60;;;9.70;40.70;;;;;;5095580;28;20031;-71
2022/03/20 12:21:59;;;;;;;9.93;6.35;;;9.50;40.40;;;;;;5094622;28;20030;-70
2022/03/20 12:24:45;;;;;;;12.85;7.03;;;9.60;40.80;;;;;;5092771;28;20020;-70
2022/03/20 12:27:22;;;;;;;13.68;8.00;;;9.80;40.40;;;;;;5095430;28;20023;-70
2022/03/20 12:29:52;;;;;;;9.07;6.47;;;9.80;39.60;;;;;;5094979;28;20019;-70
2022/03/20 12:32:22;;;;;;;11.15;6.85;;;9.80;39.40;;;;;;5095926;28;20023;-70
2022/03/20 12:34:58;;;;;;;12.23;7.03;;;10.00;40.20;;;;;;5096673;28;20027;-70
2022/03/20 12:37:30;;;;;;;11.00;6.70;;;10.00;39.40;;;;;;5091691;28;20049;-70
2022/03/20 12:40:20;;;;;;;10.35;7.50;;;9.90;39.50;;;;;;5094338;28;20470;-70
2022/03/20 12:43:07;;;;;;;13.90;7.00;;;9.70;39.60;;;;;;5095939;28;20027;-70
2022/03/20 12:45:37;;;;;;;16.35;7.25;;;9.60;40.00;;;;;;5092074;28;20055;-70
2022/03/20 12:48:11;;;;;;;9.75;6.75;;;9.80;40.70;;;;;;5094717;28;20034;-70
2022/03/20 12:50:39;;;;;;;12.48;6.43;;;9.80;39.60;;;;;;5092088;28;21027;-71
2022/03/20 12:53:16;;;;;;;10.45;6.72;;;10.00;40.10;;;;;;5096838;28;20035;-70
2022/03/20 12:55:55;;;;;;;11.20;7.07;;;10.20;39.00;;;;;;5093623;28;20087;-70
2022/03/20 12:58:23;;;;;;;9.57;6.85;;;10.10;39.50;;;;;;5092790;28;20089;-70
2022/03/20 13:00:50;;;;;;;8.77;5.88;;;10.10;38.70;;;;;;5096141;28;20019;-71
2022/03/20 13:03:19;;;;;;;9.65;6.70;;;10.30;38.80;;;;;;5094922;28;20461;-70
2022/03/20 13:05:45;;;;;;;10.25;6.32;;;10.40;38.60;;;;;;5096071;28;20038;-70
2022/03/20 13:08:18;;;;;;;10.23;6.63;;;10.40;37.60;;;;;;5096209;28;20019;-70
2022/03/20 13:10:44;;;;;;;8.93;5.95;;;10.20;37.60;;;;;;5092721;28;20026;-70
2022/03/20 13:13:13;;;;;;;11.00;7.00;;;10.30;38.80;;;;;;5096109;28;20020;-70
2022/03/20 13:15:40;;;;;;;10.43;6.97;;;10.30;38.30;;;;;;5092077;28;20012;-71
2022/03/20 13:18:09;;;;;;;10.65;6.75;;;10.10;37.70;;;;;;5092524;28;20613;-70
2022/03/20 13:20:41;;;;;;;10.85;6.45;;;10.20;37.90;;;;;;5095596;28;20012;-70
2022/03/20 13:23:16;;;;;;;10.05;6.90;;;10.30;38.40;;;;;;5098521;28;20070;-70
2022/03/20 13:25:51;;;;;;;9.63;6.10;;;10.40;38.20;;;;;;5091536;28;20116;-70
2022/03/20 13:28:29;;;;;;;9.43;6.22;;;10.30;37.50;;;;;;5095961;28;20034;-70
2022/03/20 13:31:16;;;;;;;11.15;6.20;;;10.00;37.40;;;;;;5094921;28;20020;-70
2022/03/20 13:33:59;;;;;;;9.55;6.05;;;10.20;37.70;;;;;;5090600;28;20464;-70
2022/03/20 13:36:32;;;;;;;10.30;6.60;;;10.10;37.50;;;;;;5091567;28;20126;-70
2022/03/20 13:38:59;;;;;;;8.90;5.22;;;10.10;37.40;;;;;;5094763;28;20709;-70
2022/03/20 13:41:27;;;;;;;13.85;5.78;;;10.00;37.70;;;;;;5093334;28;20498;-70
2022/03/20 13:44:01;;;;;;;9.48;5.78;;;9.80;37.90;;;;;;5096530;28;20041;-70
2022/03/20 13:46:30;;;;;;;9.20;6.15;;;9.80;37.90;;;;;;5092185;28;20464;-70
2022/03/20 13:49:01;;;;;;;9.38;5.85;;;9.70;37.30;;;;;;5094901;28;20496;-70
2022/03/20 13:51:30;;;;;;;9.00;5.32;;;9.70;37.20;;;;;;5090136;28;20020;-70
2022/03/20 13:54:25;;;;;;;8.32;5.22;;;9.70;37.00;;;;;;5095373;28;20503;-70
2022/03/20 13:57:08;;;;;;;8.75;6.20;;;9.90;37.00;;;;;;5094491;28;20019;-70
2022/03/20 13:59:55;;;;;;;10.25;6.10;;;9.80;37.10;;;;;;5089227;28;20055;-71
2022/03/20 14:02:21;;;;;;;8.17;6.43;;;9.60;36.90;;;;;;5095745;28;20104;-70
2022/03/20 14:04:50;;;;;;;10.75;6.25;;;9.50;37.10;;;;;;5091531;28;20020;-70
2022/03/20 14:07:23;;;;;;;10.10;6.32;;;9.50;37.30;;;;;;5097067;28;20036;-70
2022/03/20 14:09:51;;;;;;;10.40;6.68;;;9.60;37.50;;;;;;5090386;28;20383;-70